createdAt,value
2022-10-17T00:00:01.067Z,55.71
2022-10-17T00:00:13.980Z,55.67
2022-10-17T00:00:29.008Z,55.60
2022-10-17T00:00:42.276Z,55.61
2022-10-17T00:00:55.479Z,55.53
2022-10-17T00:01:08.389Z,55.43
2022-10-17T00:01:26.013Z,55.62
2022-10-17T00:01:55.153Z,55.58
2022-10-17T00:02:10.310Z,55.75
2022-10-17T00:02:43.062Z,55.88
2022-10-17T00:03:15.927Z,56.17
2022-10-17T00:03:28.858Z,56.23
2022-10-17T00:03:41.844Z,56.20
2022-10-17T00:03:55.038Z,56.11
2022-10-17T00:04:27.853Z,56.25
2022-10-17T00:05:00.544Z,56.62
2022-10-17T00:05:33.341Z,56.52
2022-10-17T00:05:47.215Z,56.28
2022-10-17T00:06:06.133Z,56.22
2022-10-17T00:06:18.953Z,56.04
2022-10-17T00:06:32.237Z,55.88
2022-10-17T00:06:45.497Z,55.84
2022-10-17T00:06:58.447Z,55.91
2022-10-17T00:07:11.274Z,55.88
2022-10-17T00:07:26.259Z,55.83
2022-10-17T00:07:39.793Z,55.75
2022-10-17T00:07:54.933Z,55.67
2022-10-17T00:08:09.451Z,55.70
2022-10-17T00:08:22.774Z,55.71
2022-10-17T00:08:36.996Z,55.64
2022-10-17T00:08:52.027Z,55.65
2022-10-17T00:09:07.020Z,55.59
2022-10-17T00:09:19.812Z,55.66
2022-10-17T00:09:32.659Z,55.56
2022-10-17T00:09:47.744Z,55.50
2022-10-17T00:10:00.970Z,55.47
2022-10-17T00:10:13.974Z,55.50
2022-10-17T00:10:34.924Z,55.44
2022-10-17T00:11:00.852Z,55.44
2022-10-17T00:11:33.600Z,55.35
2022-10-17T00:12:06.360Z,55.49
2022-10-17T00:12:39.128Z,55.49
2022-10-17T00:12:52.201Z,55.33
2022-10-17T00:13:11.036Z,55.30
2022-10-17T00:13:23.989Z,55.31
2022-10-17T00:13:36.872Z,55.20
2022-10-17T00:13:51.986Z,55.14
2022-10-17T00:14:04.844Z,55.27
2022-10-17T00:14:18.171Z,55.28
2022-10-17T00:14:30.975Z,55.31
2022-10-17T00:14:45.725Z,55.26
2022-10-17T00:15:19.349Z,55.18
2022-10-17T00:15:32.225Z,55.28
2022-10-17T00:15:45.258Z,55.41
2022-10-17T00:16:06.601Z,55.42
2022-10-17T00:17:02.577Z,55.44
2022-10-17T00:17:19.385Z,55.75
2022-10-17T00:17:32.411Z,55.85
2022-10-17T00:17:45.484Z,55.89
2022-10-17T00:17:59.423Z,55.99
2022-10-17T00:18:12.796Z,55.83
2022-10-17T00:18:25.960Z,55.70
2022-10-17T00:18:41.647Z,55.62
2022-10-17T00:19:10.733Z,55.56
2022-10-17T00:19:25.663Z,55.42
2022-10-17T00:19:46.652Z,55.37
2022-10-17T00:20:00.259Z,55.36
2022-10-17T00:20:35.533Z,55.31
2022-10-17T00:20:48.430Z,55.24
2022-10-17T00:21:20.524Z,55.30
2022-10-17T00:21:53.699Z,55.23
2022-10-17T00:22:06.556Z,55.59
2022-10-17T00:22:19.584Z,55.71
2022-10-17T00:22:52.579Z,55.81
2022-10-17T00:23:05.388Z,55.82
2022-10-17T00:23:18.581Z,55.71
2022-10-17T00:23:31.851Z,55.76
2022-10-17T00:23:45.357Z,55.82
2022-10-17T00:24:03.045Z,55.83
2022-10-17T00:24:15.969Z,55.75
2022-10-17T00:24:34.100Z,55.68
2022-10-17T00:25:07.252Z,55.61
2022-10-17T00:25:40.834Z,55.46
2022-10-17T00:26:04.998Z,55.19
2022-10-17T00:26:18.611Z,55.42
2022-10-17T00:26:31.528Z,55.32
2022-10-17T00:26:44.457Z,55.26
2022-10-17T00:26:57.634Z,55.33
2022-10-17T00:27:10.606Z,55.33
2022-10-17T00:27:23.937Z,55.29
2022-10-17T00:27:37.893Z,55.25
2022-10-17T00:27:50.892Z,55.20
2022-10-17T00:28:11.554Z,55.22
2022-10-17T00:28:28.570Z,55.20
2022-10-17T00:28:42.600Z,55.23
2022-10-17T00:28:56.652Z,55.21
2022-10-17T00:29:09.616Z,55.20
2022-10-17T00:29:23.416Z,55.25
2022-10-17T00:29:36.438Z,55.19
2022-10-17T00:29:50.272Z,55.26
2022-10-17T00:30:04.335Z,55.40
2022-10-17T00:30:17.236Z,55.47
2022-10-17T00:30:32.995Z,55.51
2022-10-17T00:30:45.845Z,55.53
2022-10-17T00:31:04.902Z,55.73
2022-10-17T00:31:37.642Z,55.60
2022-10-17T00:31:55.219Z,55.63
2022-10-17T00:32:28.277Z,55.70
2022-10-17T00:32:41.600Z,55.98
2022-10-17T00:33:14.570Z,55.79
2022-10-17T00:33:44.586Z,55.63
2022-10-17T00:34:06.530Z,55.52
2022-10-17T00:34:19.578Z,55.46
2022-10-17T00:34:36.289Z,55.37
2022-10-17T00:34:49.515Z,55.26
2022-10-17T00:35:07.708Z,55.16
2022-10-17T00:35:20.579Z,55.17
2022-10-17T00:35:33.765Z,55.21
2022-10-17T00:35:46.567Z,55.34
2022-10-17T00:36:18.860Z,55.49
2022-10-17T00:57:07.429Z,56.55
2022-10-17T00:57:20.236Z,56.83
2022-10-17T00:57:33.674Z,56.90
2022-10-17T00:57:48.420Z,57.09
2022-10-17T00:58:21.652Z,57.23
2022-10-17T00:58:36.547Z,57.27
2022-10-17T00:58:50.409Z,57.24
2022-10-17T00:59:03.780Z,57.06
2022-10-17T00:59:20.873Z,56.98
2022-10-17T00:59:34.455Z,56.75
2022-10-17T00:59:52.948Z,56.82
2022-10-17T01:00:25.668Z,56.66
2022-10-17T01:00:54.428Z,56.44
2022-10-17T01:01:08.539Z,56.27
2022-10-17T01:01:21.836Z,56.31
2022-10-17T01:01:35.240Z,56.30
2022-10-17T01:02:08.754Z,56.37
2022-10-17T01:02:23.719Z,56.35
2022-10-17T01:02:56.473Z,56.16
2022-10-17T01:03:14.602Z,56.07
2022-10-17T01:03:31.393Z,56.26
2022-10-17T01:03:46.356Z,56.26
2022-10-17T01:04:01.379Z,56.25
2022-10-17T01:04:34.124Z,56.29
2022-10-17T01:04:55.913Z,56.78
2022-10-17T01:05:28.851Z,56.59
2022-10-17T01:06:01.744Z,56.36
2022-10-17T01:06:17.079Z,56.52
2022-10-17T01:06:46.185Z,56.48
2022-10-17T01:06:59.192Z,56.44
2022-10-17T01:07:12.596Z,56.26
2022-10-17T01:07:26.848Z,56.24
2022-10-17T01:07:40.189Z,56.33
2022-10-17T01:07:53.341Z,56.49
2022-10-17T01:08:06.293Z,56.47
2022-10-17T01:08:19.097Z,56.45
2022-10-17T01:08:32.091Z,56.39
2022-10-17T01:08:45.134Z,56.20
2022-10-17T01:08:58.093Z,56.02
2022-10-17T01:09:30.997Z,55.92
2022-10-17T01:09:44.845Z,55.98
2022-10-17T01:09:59.832Z,55.95
2022-10-17T01:10:13.057Z,56.01
2022-10-17T01:10:30.163Z,56.09
2022-10-17T01:11:08.820Z,56.18
2022-10-17T01:12:11.440Z,56.29
2022-10-17T01:12:47.403Z,56.58
2022-10-17T01:13:24.343Z,56.52
2022-10-17T01:14:16.588Z,56.88
2022-10-17T01:14:42.528Z,56.72
2022-10-17T01:15:11.740Z,57.12
2022-10-17T01:15:46.838Z,57.39
2022-10-17T01:16:12.089Z,57.59
2022-10-17T01:16:27.114Z,57.21
2022-10-17T01:17:18.638Z,57.05
2022-10-17T01:17:37.038Z,56.71
2022-10-17T01:18:11.289Z,56.54
2022-10-17T01:18:57.309Z,56.19
2022-10-17T01:19:26.953Z,56.34
2022-10-17T01:20:21.127Z,56.77
2022-10-17T01:21:12.311Z,56.88
2022-10-17T01:21:36.601Z,56.57
2022-10-17T01:22:22.861Z,56.59
2022-10-17T01:22:39.146Z,56.46
2022-10-17T01:22:55.000Z,56.90
2022-10-17T01:23:36.035Z,56.83
2022-10-17T01:23:54.530Z,57.15
2022-10-17T01:24:49.471Z,56.98
2022-10-17T01:25:26.962Z,56.69
2022-10-17T01:26:06.223Z,56.85
2022-10-17T01:27:06.752Z,57.18
2022-10-17T01:28:12.298Z,57.12
2022-10-17T01:28:34.327Z,56.54
2022-10-17T01:29:18.705Z,56.22
2022-10-17T01:29:57.726Z,56.08
2022-10-17T01:30:45.459Z,56.38
2022-10-17T01:31:04.631Z,56.34
2022-10-17T01:31:19.857Z,56.19
2022-10-17T01:31:38.450Z,56.05
2022-10-17T01:32:15.555Z,56.00
2022-10-17T01:32:54.207Z,56.50
2022-10-17T01:33:12.610Z,57.06
2022-10-17T01:34:08.112Z,57.32
2022-10-17T02:01:06.089Z,57.21
2022-10-17T02:11:23.356Z,56.54
2022-10-17T02:11:37.454Z,56.41
2022-10-17T02:18:40.235Z,56.14
2022-10-17T02:18:58.998Z,56.14
2022-10-17T02:19:47.197Z,56.31
2022-10-17T02:20:04.134Z,56.35
2022-10-17T02:20:36.844Z,56.45
2022-10-17T02:20:59.433Z,56.60
2022-10-17T02:21:46.190Z,56.82
2022-10-17T02:22:18.507Z,57.01
2022-10-17T02:22:37.396Z,57.23
2022-10-17T02:23:02.856Z,57.00
2022-10-17T02:23:24.516Z,56.99
2022-10-17T02:23:57.726Z,56.74
2022-10-17T02:24:27.083Z,56.58
2022-10-17T02:25:03.789Z,56.70
2022-10-17T02:25:34.929Z,56.48
2022-10-17T02:25:55.753Z,56.37
2022-10-17T02:26:34.086Z,56.22
2022-10-17T02:26:56.595Z,56.22
2022-10-17T02:27:14.091Z,56.12
2022-10-17T02:27:52.804Z,56.04
2022-10-17T02:28:13.701Z,56.16
2022-10-17T02:28:35.600Z,56.31
2022-10-17T02:29:07.020Z,56.45
2022-10-17T02:29:44.866Z,56.56
2022-10-17T02:30:01.485Z,56.68
2022-10-17T02:30:17.903Z,56.81
2022-10-17T02:30:33.697Z,56.92
2022-10-17T02:30:59.168Z,56.92
2022-10-17T02:31:15.743Z,56.81
2022-10-17T02:31:42.627Z,56.91
2022-10-17T02:31:59.844Z,57.14
2022-10-17T02:32:17.856Z,57.34
2022-10-17T02:32:55.519Z,57.41
2022-10-17T02:33:12.351Z,57.24
2022-10-17T02:33:32.884Z,57.23
2022-10-17T02:33:49.713Z,57.22
2022-10-17T02:34:50.921Z,57.07
2022-10-17T02:35:05.553Z,56.34
2022-10-17T02:35:19.783Z,56.15
2022-10-17T02:35:51.901Z,56.14
2022-10-17T02:36:11.167Z,56.21
2022-10-17T02:36:26.701Z,56.42
2022-10-17T02:36:51.774Z,56.67
2022-10-17T02:37:07.583Z,56.92
2022-10-17T02:37:23.477Z,57.08
2022-10-17T02:37:36.404Z,57.03
2022-10-17T02:37:49.243Z,57.01
2022-10-17T02:38:02.483Z,56.92
2022-10-17T02:38:15.319Z,56.82
2022-10-17T02:38:28.362Z,56.70
2022-10-17T02:38:41.241Z,56.67
2022-10-17T02:38:55.042Z,56.67
2022-10-17T02:39:08.179Z,56.89
2022-10-17T02:39:40.502Z,56.91
2022-10-17T02:39:54.759Z,56.81
2022-10-17T02:40:07.863Z,57.12
2022-10-17T02:40:40.693Z,57.11
2022-10-17T02:40:53.982Z,57.17
2022-10-17T02:41:10.779Z,57.11
2022-10-17T02:41:23.768Z,56.84
2022-10-17T02:41:36.758Z,56.78
2022-10-17T02:41:50.996Z,57.08
2022-10-17T02:42:06.221Z,57.23
2022-10-17T02:42:20.077Z,57.15
2022-10-17T02:42:33.005Z,57.25
2022-10-17T02:42:45.979Z,57.39
2022-10-17T02:42:59.212Z,57.44
2022-10-17T02:43:21.227Z,57.17
2022-10-17T02:43:35.002Z,56.88
2022-10-17T02:43:49.007Z,56.78
2022-10-17T02:44:02.635Z,56.61
2022-10-17T02:44:15.491Z,56.76
2022-10-17T02:44:28.808Z,57.01
2022-10-17T02:44:44.667Z,57.30
2022-10-17T02:44:59.893Z,57.36
2022-10-17T02:45:13.330Z,57.56
2022-10-17T02:45:27.763Z,57.38
2022-10-17T02:45:40.603Z,57.22
2022-10-17T02:45:54.496Z,57.12
2022-10-17T02:46:08.197Z,56.90
2022-10-17T02:46:22.208Z,56.78
2022-10-17T02:46:36.287Z,56.71
2022-10-17T02:46:53.037Z,56.53
2022-10-17T02:47:24.640Z,56.45
2022-10-17T02:47:43.226Z,56.35
2022-10-17T02:48:26.815Z,56.37
2022-10-17T02:48:44.471Z,56.31
2022-10-17T02:49:07.985Z,56.27
2022-10-17T02:49:31.600Z,56.24
2022-10-17T02:49:47.546Z,56.35
2022-10-17T02:50:02.749Z,56.30
2022-10-17T02:50:15.673Z,56.17
2022-10-17T02:50:51.906Z,56.31
2022-10-17T02:51:22.997Z,56.12
2022-10-17T02:51:45.621Z,55.68
2022-10-17T02:52:04.710Z,55.64
2022-10-17T02:52:42.166Z,55.68
2022-10-17T02:53:15.849Z,55.82
2022-10-17T02:53:38.072Z,55.74
2022-10-17T02:54:21.097Z,55.79
2022-10-17T02:54:54.514Z,55.85
2022-10-17T02:55:14.364Z,55.70
2022-10-17T02:55:31.694Z,55.57
2022-10-17T02:55:59.141Z,55.49
2022-10-17T02:56:16.775Z,55.60
2022-10-17T02:56:55.565Z,55.64
2022-10-17T02:57:21.231Z,55.74
2022-10-17T02:57:42.534Z,56.11
2022-10-17T02:57:57.361Z,56.58
2022-10-17T02:58:20.001Z,56.95
2022-10-17T02:58:33.353Z,57.26
2022-10-17T02:58:48.608Z,57.40
2022-10-17T02:59:45.907Z,57.33
2022-10-17T03:00:04.959Z,57.20
2022-10-17T03:00:18.496Z,57.08
2022-10-17T03:00:31.326Z,56.92
2022-10-17T03:00:44.629Z,56.84
2022-10-17T03:00:58.364Z,56.82
2022-10-17T03:01:11.567Z,56.85
2022-10-17T03:01:24.603Z,56.86
2022-10-17T03:01:38.210Z,56.75
2022-10-17T03:01:51.648Z,56.56
2022-10-17T03:02:06.074Z,56.67
2022-10-17T03:02:19.998Z,56.85
2022-10-17T03:02:45.339Z,56.73
2022-10-17T03:03:03.016Z,56.60
2022-10-17T03:03:28.968Z,56.54
2022-10-17T03:03:42.068Z,56.85
2022-10-17T03:04:08.602Z,56.69
2022-10-17T03:04:21.892Z,56.99
2022-10-17T03:04:35.159Z,57.04
2022-10-17T03:04:48.371Z,57.29
2022-10-17T03:05:01.174Z,57.33
2022-10-17T03:05:20.012Z,57.50
2022-10-17T03:05:33.112Z,57.60
2022-10-17T03:05:45.914Z,57.61
2022-10-17T03:06:18.670Z,57.50
2022-10-17T03:06:31.558Z,57.65
2022-10-17T03:06:44.764Z,57.56
2022-10-17T03:06:57.644Z,57.61
2022-10-17T03:07:10.753Z,57.59
2022-10-17T03:07:23.672Z,57.52
2022-10-17T03:07:37.599Z,57.51
2022-10-17T03:07:51.701Z,57.48
2022-10-17T03:08:06.341Z,57.57
2022-10-17T03:08:20.082Z,57.62
2022-10-17T03:08:33.487Z,57.57
2022-10-17T03:08:46.421Z,57.61
2022-10-17T03:08:59.691Z,57.47
2022-10-17T03:09:12.513Z,57.29
2022-10-17T03:09:25.840Z,57.20
2022-10-17T03:09:39.145Z,57.16
2022-10-17T03:09:54.209Z,57.06
2022-10-17T03:10:08.180Z,57.00
2022-10-17T03:10:52.686Z,57.16
2022-10-17T03:11:05.582Z,57.42
2022-10-17T03:11:20.804Z,57.65
2022-10-17T03:11:34.420Z,57.89
2022-10-17T03:11:47.670Z,58.16
2022-10-17T03:12:00.595Z,58.37
2022-10-17T03:12:15.405Z,58.43
2022-10-17T03:12:28.490Z,58.36
2022-10-17T03:12:57.894Z,58.19
2022-10-17T03:13:10.948Z,58.19
2022-10-17T03:13:25.705Z,58.19
2022-10-17T03:13:39.900Z,58.14
2022-10-17T03:13:52.905Z,58.11
2022-10-17T03:14:07.012Z,58.17
2022-10-17T03:14:19.995Z,58.11
2022-10-17T03:14:32.815Z,58.23
2022-10-17T03:14:46.051Z,58.19
2022-10-17T03:14:58.853Z,58.17
2022-10-17T03:15:31.581Z,58.05
2022-10-17T03:15:49.641Z,57.53
2022-10-17T03:16:02.487Z,57.42
2022-10-17T03:16:17.539Z,57.33
2022-10-17T03:16:34.700Z,57.28
2022-10-17T03:16:47.537Z,57.51
2022-10-17T03:17:02.643Z,57.79
2022-10-17T03:17:15.539Z,57.72
2022-10-17T03:17:28.361Z,57.62
2022-10-17T03:17:43.201Z,57.53
2022-10-17T03:18:00.492Z,57.67
2022-10-17T03:18:13.713Z,57.89
2022-10-17T03:18:26.606Z,57.92
2022-10-17T03:19:10.805Z,57.69
2022-10-17T03:19:23.989Z,57.67
2022-10-17T03:19:36.823Z,57.95
2022-10-17T03:19:51.706Z,58.22
2022-10-17T03:20:05.633Z,58.22
2022-10-17T03:20:18.422Z,57.96
2022-10-17T03:20:47.090Z,57.81
2022-10-17T03:21:00.659Z,57.61
2022-10-17T03:21:13.668Z,57.50
2022-10-17T03:21:26.525Z,57.57
2022-10-17T03:21:39.811Z,57.61
2022-10-17T03:21:56.603Z,57.36
2022-10-17T03:22:09.439Z,57.39
2022-10-17T03:22:42.178Z,57.62
2022-10-17T03:22:55.081Z,57.60
2022-10-17T03:23:08.122Z,57.51
2022-10-17T03:23:21.322Z,57.53
2022-10-17T03:23:53.144Z,57.62
2022-10-17T03:24:07.240Z,57.55
2022-10-17T03:24:20.102Z,57.51
2022-10-17T03:24:33.028Z,57.44
2022-10-17T03:24:45.925Z,57.43
2022-10-17T03:24:59.885Z,57.27
2022-10-17T03:25:13.051Z,57.21
2022-10-17T03:25:26.138Z,57.12
2022-10-17T03:25:41.084Z,57.02
2022-10-17T03:25:54.907Z,57.03
2022-10-17T03:26:29.513Z,57.34
2022-10-17T03:26:44.294Z,57.54
2022-10-17T03:26:59.324Z,57.62
2022-10-17T03:27:12.646Z,57.72
2022-10-17T03:27:25.833Z,57.51
2022-10-17T03:27:39.210Z,57.34
2022-10-17T03:27:52.693Z,57.25
2022-10-17T03:28:06.020Z,57.10
2022-10-17T03:28:18.893Z,56.95
2022-10-17T03:28:31.754Z,56.77
2022-10-17T03:28:45.013Z,56.89
2022-10-17T03:28:58.428Z,57.02
2022-10-17T03:29:11.286Z,57.06
2022-10-17T03:29:24.644Z,57.17
2022-10-17T03:29:43.532Z,57.12
2022-10-17T03:29:56.824Z,57.05
2022-10-17T03:30:09.979Z,56.95
2022-10-17T03:30:42.737Z,56.86
2022-10-17T03:30:55.662Z,56.70
2022-10-17T03:31:14.692Z,56.69
2022-10-17T03:31:27.995Z,56.65
2022-10-17T03:31:41.236Z,56.57
2022-10-17T03:31:54.060Z,56.59
2022-10-17T03:32:07.204Z,56.61
2022-10-17T03:32:20.099Z,56.60
2022-10-17T03:32:34.011Z,56.63
2022-10-17T03:32:47.202Z,56.54
2022-10-17T03:33:01.092Z,56.53
2022-10-17T03:33:14.532Z,56.64
2022-10-17T03:33:47.263Z,56.96
2022-10-17T03:34:02.124Z,57.32
2022-10-17T03:34:17.721Z,57.36
2022-10-17T03:34:31.099Z,57.57
2022-10-17T03:34:43.940Z,57.56
2022-10-17T03:34:57.638Z,57.50
2022-10-17T03:35:29.540Z,57.47
2022-10-17T03:35:42.661Z,57.41
2022-10-17T03:35:55.604Z,57.09
2022-10-17T03:36:12.997Z,56.97
2022-10-17T03:36:26.180Z,57.02
2022-10-17T03:36:39.082Z,56.97
2022-10-17T03:36:52.003Z,57.08
2022-10-17T03:37:05.997Z,57.19
2022-10-17T03:37:23.486Z,57.05
2022-10-17T03:37:36.439Z,57.10
2022-10-17T03:37:51.407Z,57.17
2022-10-17T03:38:04.684Z,57.10
2022-10-17T03:38:18.357Z,57.03
2022-10-17T03:38:54.218Z,57.08
2022-10-17T03:39:08.159Z,57.01
2022-10-17T03:39:25.097Z,57.04
2022-10-17T03:39:37.959Z,57.14
2022-10-17T03:39:51.694Z,57.23
2022-10-17T03:40:05.294Z,57.24
2022-10-17T03:40:18.635Z,57.36
2022-10-17T03:40:35.424Z,57.39
2022-10-17T03:40:55.312Z,57.44
2022-10-17T03:41:08.699Z,57.19
2022-10-17T03:41:21.658Z,57.21
2022-10-17T03:42:05.646Z,57.30
2022-10-17T03:42:20.729Z,57.27
2022-10-17T03:42:34.484Z,57.33
2022-10-17T03:42:47.313Z,57.10
2022-10-17T03:43:00.184Z,57.20
2022-10-17T03:43:12.987Z,57.38
2022-10-17T03:43:34.446Z,57.46
2022-10-17T03:43:54.013Z,57.57
2022-10-17T03:44:26.806Z,57.94
2022-10-17T03:44:40.114Z,58.21
2022-10-17T03:44:54.095Z,58.31
2022-10-17T03:45:07.234Z,58.02
2022-10-17T03:45:20.657Z,57.98
2022-10-17T03:45:39.075Z,57.83
2022-10-17T03:45:51.956Z,57.95
2022-10-17T03:46:08.645Z,57.82
2022-10-17T03:46:21.811Z,57.95
2022-10-17T03:47:09.220Z,57.81
2022-10-17T03:47:24.858Z,58.29
2022-10-17T03:47:37.724Z,58.35
2022-10-17T03:48:01.206Z,58.23
2022-10-17T03:48:14.415Z,57.99
2022-10-17T03:48:28.277Z,57.74
2022-10-17T03:48:42.172Z,57.61
2022-10-17T03:48:55.403Z,57.47
2022-10-17T03:49:09.428Z,57.65
2022-10-17T03:49:22.238Z,57.80
2022-10-17T03:49:36.926Z,57.85
2022-10-17T03:49:57.728Z,57.77
2022-10-17T03:50:12.464Z,57.86
2022-10-17T03:50:27.577Z,58.02
2022-10-17T03:51:02.592Z,58.00
2022-10-17T03:51:15.715Z,58.69
2022-10-17T03:51:28.572Z,58.55
2022-10-17T03:51:41.475Z,58.80
2022-10-17T03:52:12.863Z,58.71
2022-10-17T03:52:26.269Z,58.61
2022-10-17T03:52:39.464Z,58.49
2022-10-17T03:52:52.444Z,58.49
2022-10-17T03:53:09.946Z,58.33
2022-10-17T03:53:24.786Z,58.00
2022-10-17T03:53:37.580Z,57.80
2022-10-17T03:53:50.592Z,57.79
2022-10-17T03:54:07.811Z,57.99
2022-10-17T03:54:22.654Z,57.85
2022-10-17T03:54:35.813Z,58.11
2022-10-17T03:54:50.472Z,58.18
2022-10-17T03:55:03.522Z,58.15
2022-10-17T03:55:34.397Z,58.02
2022-10-17T03:55:47.399Z,58.16
2022-10-17T04:26:46.673Z,59.04
2022-10-17T04:27:01.804Z,58.96
2022-10-17T04:27:15.651Z,59.03
2022-10-17T04:27:28.859Z,59.05
2022-10-17T04:27:49.654Z,59.27
2022-10-17T04:28:02.900Z,59.13
2022-10-17T04:28:16.928Z,59.28
2022-10-17T04:28:31.038Z,59.36
2022-10-17T04:28:44.158Z,59.25
2022-10-17T04:28:58.855Z,59.25
2022-10-17T04:29:11.950Z,59.19
2022-10-17T04:29:55.913Z,59.22
2022-10-17T04:30:10.027Z,59.18
2022-10-17T04:30:22.898Z,59.30
2022-10-17T04:30:42.352Z,59.28
2022-10-17T04:31:03.111Z,59.11
2022-10-17T04:31:17.481Z,59.40
2022-10-17T04:31:30.529Z,59.51
2022-10-17T04:31:43.583Z,59.44
2022-10-17T04:31:56.455Z,59.47
2022-10-17T04:32:11.407Z,59.51
2022-10-17T04:32:26.415Z,59.39
2022-10-17T04:32:40.328Z,59.02
2022-10-17T04:32:53.799Z,58.96
2022-10-17T04:33:07.744Z,58.88
2022-10-17T04:33:22.506Z,58.77
2022-10-17T04:33:49.952Z,58.78
2022-10-17T04:34:03.202Z,58.74
2022-10-17T04:34:16.711Z,58.87
2022-10-17T04:34:30.106Z,58.72
2022-10-17T04:34:43.245Z,58.69
2022-10-17T04:34:56.688Z,58.62
2022-10-17T04:35:29.417Z,58.52
2022-10-17T04:36:00.846Z,58.28
2022-10-17T04:36:19.360Z,58.48
2022-10-17T04:36:32.738Z,58.66
2022-10-17T04:36:47.129Z,58.88
2022-10-17T04:37:20.224Z,59.05
2022-10-17T04:37:52.977Z,59.39
2022-10-17T04:38:07.120Z,59.34
2022-10-17T04:38:21.234Z,59.39
2022-10-17T04:38:35.603Z,59.27
2022-10-17T04:38:48.491Z,59.20
2022-10-17T04:39:21.238Z,59.04
2022-10-17T04:39:54.469Z,59.17
2022-10-17T04:40:08.399Z,59.18
2022-10-17T04:40:21.312Z,59.38
2022-10-17T04:40:34.610Z,59.45
2022-10-17T04:40:47.576Z,59.63
2022-10-17T04:41:04.936Z,59.47
2022-10-17T04:41:27.349Z,59.11
2022-10-17T04:41:40.205Z,59.20
2022-10-17T04:41:53.256Z,59.07
2022-10-17T04:42:06.095Z,58.96
2022-10-17T04:42:18.925Z,58.86
2022-10-17T04:42:32.319Z,58.79
2022-10-17T04:42:45.374Z,58.85
2022-10-17T04:42:58.491Z,59.04
2022-10-17T04:43:11.285Z,58.97
2022-10-17T04:43:25.133Z,59.02
2022-10-17T04:43:38.331Z,59.17
2022-10-17T04:43:55.616Z,58.92
2022-10-17T04:44:30.867Z,58.95
2022-10-17T04:44:45.580Z,58.69
2022-10-17T04:44:59.252Z,58.74
2022-10-17T04:45:12.086Z,58.86
2022-10-17T04:46:12.414Z,59.02
2022-10-17T04:46:25.513Z,59.15
2022-10-17T04:46:38.414Z,59.41
2022-10-17T04:46:51.231Z,59.38
2022-10-17T04:47:04.065Z,59.37
2022-10-17T04:47:17.365Z,59.26
2022-10-17T04:47:38.312Z,59.17
2022-10-17T04:47:52.027Z,58.84
2022-10-17T05:25:25.960Z,59.40
2022-10-17T05:25:46.892Z,59.72
2022-10-17T05:25:59.862Z,59.35
2022-10-17T05:26:13.958Z,59.19
2022-10-17T05:26:26.883Z,59.34
2022-10-17T05:26:40.025Z,59.09
2022-10-17T05:27:13.420Z,59.19
2022-10-17T05:27:26.446Z,59.11
2022-10-17T05:27:39.313Z,59.05
2022-10-17T05:27:52.322Z,58.84
2022-10-17T05:28:05.443Z,58.69
2022-10-17T05:28:18.484Z,58.51
2022-10-17T05:28:31.554Z,58.56
2022-10-17T05:28:46.586Z,58.49
2022-10-17T05:29:03.131Z,58.42
2022-10-17T05:29:16.145Z,58.67
2022-10-17T05:29:48.877Z,58.54
2022-10-17T05:30:04.185Z,58.90
2022-10-17T05:30:20.970Z,59.12
2022-10-17T05:30:36.885Z,59.04
2022-10-17T05:31:08.448Z,59.09
2022-10-17T05:31:21.511Z,59.34
2022-10-17T05:31:34.731Z,59.44
2022-10-17T05:31:47.584Z,59.50
2022-10-17T05:32:18.490Z,59.76
2022-10-17T05:32:32.940Z,59.84
2022-10-17T05:32:54.603Z,59.80
2022-10-17T05:33:07.595Z,59.45
2022-10-17T05:33:20.649Z,59.20
2022-10-17T05:33:34.048Z,59.12
2022-10-17T05:33:46.950Z,58.90
2022-10-17T05:34:02.991Z,58.86
2022-10-17T05:34:16.253Z,58.73
2022-10-17T05:34:29.059Z,58.70
2022-10-17T05:35:04.262Z,58.63
2022-10-17T05:35:17.241Z,58.66
2022-10-17T05:35:30.385Z,58.67
2022-10-17T05:35:43.234Z,58.62
2022-10-17T05:35:56.452Z,58.48
2022-10-17T05:36:09.253Z,58.27
2022-10-17T05:36:41.995Z,58.13
2022-10-17T05:36:55.098Z,57.91
2022-10-17T05:37:08.584Z,57.81
2022-10-17T05:37:22.614Z,57.83
2022-10-17T05:37:35.451Z,57.81
2022-10-17T05:37:48.404Z,58.05
2022-10-17T05:38:01.710Z,58.35
2022-10-17T05:38:16.769Z,58.31
2022-10-17T05:38:31.760Z,58.43
2022-10-17T05:38:44.657Z,58.51
2022-10-17T05:38:57.465Z,58.61
2022-10-17T05:39:26.614Z,58.77
2022-10-17T05:39:39.815Z,58.79
2022-10-17T05:39:52.697Z,58.77
2022-10-17T05:40:06.063Z,58.71
2022-10-17T05:40:19.259Z,58.89
2022-10-17T05:40:32.352Z,58.76
2022-10-17T05:40:46.175Z,58.87
2022-10-17T05:41:00.535Z,59.06
2022-10-17T05:41:18.406Z,59.21
2022-10-17T05:41:31.197Z,59.48
2022-10-17T05:41:46.754Z,59.34
2022-10-17T05:41:59.666Z,59.12
2022-10-17T05:42:22.024Z,59.08
2022-10-17T05:42:35.453Z,59.08
2022-10-17T05:42:48.639Z,59.15
2022-10-17T05:43:01.484Z,59.22
2022-10-17T05:43:14.832Z,59.17
2022-10-17T05:43:47.602Z,59.18
2022-10-17T05:44:04.576Z,59.62
2022-10-17T05:44:18.603Z,60.09
2022-10-17T05:44:35.883Z,59.92
2022-10-17T05:44:49.791Z,59.87
2022-10-17T05:45:02.714Z,59.99
2022-10-17T05:45:16.076Z,60.31
2022-10-17T05:45:30.787Z,60.27
2022-10-17T05:45:43.726Z,59.90
2022-10-17T05:45:56.548Z,59.54
2022-10-17T05:46:09.796Z,59.36
2022-10-17T05:46:24.812Z,59.22
2022-10-17T05:46:37.859Z,59.34
2022-10-17T05:46:51.071Z,59.60
2022-10-17T05:47:04.739Z,59.78
2022-10-17T05:48:09.074Z,59.52
2022-10-17T05:48:22.467Z,59.65
2022-10-17T05:48:35.689Z,59.62
2022-10-17T05:48:49.224Z,59.61
2022-10-17T05:49:10.655Z,59.63
2022-10-17T05:49:44.973Z,59.78
2022-10-17T05:50:01.395Z,60.15
2022-10-17T05:50:14.553Z,60.08
2022-10-17T05:50:47.474Z,59.68
2022-10-17T05:51:09.653Z,59.22
2022-10-17T05:51:26.549Z,59.03
2022-10-17T05:51:41.654Z,58.88
2022-10-17T05:51:54.821Z,59.14
2022-10-17T05:52:07.642Z,59.18
2022-10-17T05:52:22.520Z,59.32
2022-10-17T05:52:35.721Z,59.58
2022-10-17T05:52:56.628Z,59.73
2022-10-17T05:53:33.680Z,59.84
2022-10-17T05:54:06.718Z,59.30
2022-10-17T05:54:22.078Z,59.29
2022-10-17T05:54:35.172Z,59.15
2022-10-17T05:54:48.631Z,59.19
2022-10-17T05:55:01.533Z,59.01
2022-10-17T05:55:15.286Z,59.03
2022-10-17T05:55:28.636Z,59.09
2022-10-17T05:55:41.985Z,59.21
2022-10-17T05:55:57.612Z,59.12
2022-10-17T05:56:11.490Z,59.42
2022-10-17T05:56:24.891Z,59.55
2022-10-17T05:56:42.598Z,59.65
2022-10-17T05:57:14.477Z,59.65
2022-10-17T05:57:27.323Z,59.65
2022-10-17T05:57:40.393Z,59.45
2022-10-17T05:57:54.067Z,59.65
2022-10-17T05:58:11.737Z,59.50
2022-10-17T05:58:49.116Z,59.59
2022-10-17T05:59:05.158Z,59.58
2022-10-17T05:59:22.212Z,59.71
2022-10-17T05:59:35.226Z,60.04
2022-10-17T05:59:48.410Z,59.92
2022-10-17T06:00:01.671Z,59.79
2022-10-17T06:00:14.887Z,59.88
2022-10-17T06:00:47.635Z,59.75
2022-10-17T06:01:06.214Z,59.62
2022-10-17T06:01:24.401Z,59.79
2022-10-17T06:01:37.322Z,59.83
2022-10-17T06:01:51.381Z,59.64
2022-10-17T06:02:04.813Z,59.68
2022-10-17T06:02:18.230Z,59.85
2022-10-17T06:02:32.590Z,59.99
2022-10-17T06:02:48.903Z,59.76
2022-10-17T06:03:03.984Z,59.68
2022-10-17T06:03:16.834Z,59.59
2022-10-17T06:03:30.716Z,59.41
2022-10-17T06:03:48.389Z,59.26
2022-10-17T06:04:32.513Z,59.10
2022-10-17T06:04:46.590Z,59.18
2022-10-17T06:04:59.409Z,59.23
2022-10-17T06:05:12.858Z,59.21
2022-10-17T06:05:26.176Z,59.19
2022-10-17T06:06:11.464Z,59.30
2022-10-17T06:06:24.327Z,59.28
2022-10-17T06:06:37.584Z,59.02
2022-10-17T06:06:50.908Z,59.07
2022-10-17T06:07:22.120Z,59.02
2022-10-17T06:07:35.894Z,58.98
2022-10-17T06:07:55.878Z,58.87
2022-10-17T06:08:12.800Z,58.86
2022-10-17T06:08:44.413Z,59.29
2022-10-17T06:08:57.753Z,59.54
2022-10-17T06:09:12.452Z,59.50
2022-10-17T06:09:25.374Z,59.44
2022-10-17T06:09:40.600Z,59.27
2022-10-17T06:09:54.538Z,59.27
2022-10-17T06:10:10.009Z,59.41
2022-10-17T06:10:24.279Z,59.55
2022-10-17T06:10:37.115Z,59.60
2022-10-17T06:10:51.864Z,59.59
2022-10-17T06:11:07.671Z,59.66
2022-10-17T06:11:23.028Z,59.73
2022-10-17T06:11:38.127Z,59.88
2022-10-17T06:12:10.878Z,59.91
2022-10-17T06:12:23.779Z,59.72
2022-10-17T06:12:57.581Z,59.51
2022-10-17T06:13:11.124Z,59.13
2022-10-17T06:13:34.623Z,58.86
2022-10-17T06:13:49.576Z,58.68
2022-10-17T06:14:03.330Z,58.50
2022-10-17T06:14:16.640Z,58.58